createdAt,value
2018-04-12T00:04:50.644Z,4.70
2018-04-12T00:09:53.449Z,5.65
2018-04-12T00:14:56.299Z,6.20
2018-04-12T00:19:59.271Z,6.40
2018-04-12T00:25:04.996Z,7.00
2018-04-12T00:30:09.466Z,7.15
2018-04-12T00:35:13.293Z,7.85
2018-04-12T00:40:16.360Z,7.30
2018-04-12T00:45:19.916Z,9.05
2018-04-12T00:50:23.837Z,12.85
2018-04-12T00:55:27.138Z,12.70
2018-04-12T01:00:30.228Z,13.93
2018-04-12T01:05:34.817Z,14.02
2018-04-12T01:10:37.826Z,15.07
2018-04-12T01:15:40.925Z,13.43
2018-04-12T01:20:44.936Z,14.27
2018-04-12T01:25:47.929Z,14.38
2018-04-12T01:30:50.802Z,17.20
2018-04-12T01:35:53.957Z,14.50
2018-04-12T01:40:56.804Z,17.30
2018-04-12T01:46:01.148Z,18.75
2018-04-12T01:51:05.489Z,20.35
2018-04-12T01:56:09.257Z,21.10
2018-04-12T02:01:12.881Z,19.58
2018-04-12T02:06:16.023Z,21.60
2018-04-12T02:11:19.300Z,22.25
2018-04-12T02:16:22.471Z,22.85
2018-04-12T02:21:27.164Z,25.88
2018-04-12T02:26:31.001Z,25.98
2018-04-12T02:31:33.867Z,25.30
2018-04-12T02:36:36.703Z,27.15
2018-04-12T02:41:39.505Z,30.58
2018-04-12T02:46:42.335Z,29.02
2018-04-12T02:51:45.145Z,29.50
2018-04-12T02:56:48.153Z,29.42
2018-04-12T03:01:51.217Z,31.52
2018-04-12T03:06:54.022Z,34.22
2018-04-12T03:11:56.841Z,35.33
2018-04-12T03:16:59.690Z,36.47
2018-04-12T03:22:02.540Z,37.53
2018-04-12T03:27:05.363Z,38.35
2018-04-12T03:32:08.384Z,39.08
2018-04-12T03:37:11.805Z,39.60
2018-04-12T03:42:15.131Z,40.05
2018-04-12T03:47:17.956Z,39.60
2018-04-12T03:52:20.815Z,41.10
2018-04-12T03:57:23.651Z,41.80
2018-04-12T04:02:26.591Z,40.05
2018-04-12T04:07:43.582Z,41.90
2018-04-12T04:12:46.415Z,42.95
2018-04-12T04:18:06.390Z,41.97
2018-04-12T04:23:10.910Z,42.90
2018-04-12T04:28:14.318Z,42.70
2018-04-12T04:33:17.111Z,43.00
2018-04-12T04:38:20.111Z,41.78
2018-04-12T04:43:22.916Z,43.15
2018-04-12T04:48:25.877Z,43.45
2018-04-12T04:53:28.649Z,44.33
2018-04-12T04:58:31.771Z,43.80
2018-04-12T05:03:34.720Z,42.65
2018-04-12T05:08:37.618Z,42.60
2018-04-12T05:13:40.655Z,41.17
2018-04-12T05:18:43.615Z,42.20
2018-04-12T05:23:46.477Z,42.40
2018-04-12T05:28:49.380Z,41.73
2018-04-12T05:33:52.314Z,43.03
2018-04-12T05:38:55.167Z,41.95
2018-04-12T05:43:58.017Z,38.70
2018-04-12T05:49:01.022Z,42.15
2018-04-12T05:54:04.110Z,41.30
2018-04-12T05:59:06.950Z,41.30
2018-04-12T06:04:09.827Z,40.88
2018-04-12T06:09:12.787Z,41.03
2018-04-12T06:14:15.649Z,40.70
2018-04-12T06:19:18.445Z,38.47
2018-04-12T06:24:21.458Z,37.07
2018-04-12T06:29:24.873Z,37.60
2018-04-12T06:34:27.722Z,34.83
2018-04-12T06:39:30.564Z,35.10
2018-04-12T06:44:33.403Z,33.70
2018-04-12T06:49:36.263Z,30.48
2018-04-12T06:54:39.098Z,28.92
2018-04-12T06:59:51.053Z,27.85
2018-04-12T07:04:54.237Z,25.88
2018-04-12T07:09:57.066Z,24.13
2018-04-12T07:14:59.906Z,22.47
2018-04-12T07:20:02.844Z,20.00
2018-04-12T07:25:09.618Z,18.70
2018-04-12T07:30:14.138Z,15.77
2018-04-12T07:35:16.978Z,14.45
2018-04-12T07:40:25.103Z,13.75
2018-04-12T07:45:28.191Z,14.65
2018-04-12T07:50:31.780Z,13.00
2018-04-12T07:55:35.996Z,11.30
2018-04-12T08:00:43.377Z,11.25
2018-04-12T08:05:46.472Z,9.80
2018-04-12T08:10:49.334Z,7.20
2018-04-12T08:15:52.246Z,6.97
2018-04-12T08:20:55.382Z,4.60
2018-04-12T08:25:58.233Z,4.07
2018-04-12T08:31:01.224Z,3.90
2018-04-12T08:36:05.348Z,4.15
2018-04-12T08:41:08.242Z,4.20
2018-04-12T08:46:11.084Z,4.00
2018-04-12T08:51:14.039Z,3.97
2018-04-12T08:56:17.691Z,4.07
2018-04-12T09:01:20.570Z,3.57
2018-04-12T09:06:23.475Z,3.45
2018-04-12T09:11:26.341Z,3.80
2018-04-12T09:16:29.268Z,3.95
2018-04-12T09:21:32.157Z,3.80
2018-04-12T09:26:34.985Z,3.60
2018-04-12T09:31:37.884Z,3.78
2018-04-12T09:36:40.778Z,3.80
2018-04-12T09:47:16.263Z,3.05
2018-04-12T09:52:22.066Z,3.30
2018-04-12T09:57:25.938Z,3.20
2018-04-12T10:02:28.851Z,3.42
2018-04-12T10:07:39.901Z,3.90
2018-04-12T10:12:46.013Z,3.77
2018-04-12T10:17:51.956Z,3.60
2018-04-12T10:22:55.817Z,3.70
2018-04-12T10:28:00.162Z,3.80
2018-04-12T10:33:03.203Z,3.33
2018-04-12T10:38:07.093Z,3.60
2018-04-12T10:43:09.965Z,3.50
2018-04-12T10:48:13.187Z,3.20
2018-04-12T10:53:16.509Z,3.30
2018-04-12T10:58:19.440Z,3.10
2018-04-12T11:03:22.534Z,3.80
2018-04-12T11:08:26.606Z,3.30
2018-04-12T11:13:29.661Z,3.30
2018-04-12T11:18:32.795Z,3.33
2018-04-12T11:23:36.179Z,3.10
2018-04-12T11:28:39.157Z,2.95
2018-04-12T11:33:42.287Z,3.10
2018-04-12T11:38:45.706Z,3.30
2018-04-12T11:43:48.718Z,3.50
2018-04-12T11:48:51.742Z,5.60
2018-04-12T11:53:55.434Z,6.50
2018-04-12T11:58:58.283Z,7.30
2018-04-12T12:04:01.528Z,7.55
2018-04-12T12:09:05.461Z,6.90
2018-04-12T12:14:08.362Z,6.50
2018-04-12T12:19:11.230Z,6.30
2018-04-12T12:24:14.203Z,6.70
2018-04-12T12:29:17.893Z,6.85
2018-04-12T12:34:20.790Z,7.40
2018-04-12T12:39:23.649Z,6.62
2018-04-12T12:44:26.504Z,6.70
2018-04-12T12:49:29.387Z,6.40
2018-04-12T12:54:32.286Z,6.20
2018-04-12T12:59:36.569Z,6.20
2018-04-12T13:04:40.155Z,5.68
2018-04-12T13:09:45.301Z,6.90
2018-04-12T13:14:49.163Z,8.25
2018-04-12T13:19:51.996Z,7.60
2018-04-12T13:24:54.808Z,7.03
2018-04-12T13:29:57.648Z,4.80
2018-04-12T13:35:00.490Z,4.68
2018-04-12T13:40:03.497Z,5.10
2018-04-12T13:45:06.408Z,4.77
2018-04-12T13:50:09.240Z,4.37
2018-04-12T13:55:12.158Z,4.40
2018-04-12T14:00:15.093Z,3.50
2018-04-12T14:05:17.948Z,3.17
2018-04-12T14:10:20.798Z,3.70
2018-04-12T14:15:23.660Z,3.10
2018-04-12T14:20:26.500Z,2.70
2018-04-12T14:25:29.841Z,3.00
2018-04-12T14:30:32.736Z,2.60
2018-04-12T14:35:46.093Z,2.40
2018-04-12T14:46:06.723Z,2.10
2018-04-12T14:51:10.239Z,1.90
2018-04-12T14:56:13.045Z,1.70
2018-04-12T15:01:15.941Z,1.62
2018-04-12T15:06:19.154Z,1.80
2018-04-12T15:11:23.148Z,1.83
2018-04-12T15:16:25.979Z,2.03
2018-04-12T15:21:28.806Z,2.00
2018-04-12T15:26:31.671Z,1.80
2018-04-12T15:31:34.718Z,2.00
2018-04-12T15:36:37.519Z,2.10
2018-04-12T15:41:40.368Z,2.60
2018-04-12T15:46:45.576Z,4.22
2018-04-12T15:51:48.995Z,3.62
2018-04-12T15:56:51.872Z,5.90
2018-04-12T16:01:58.004Z,4.50
2018-04-12T16:07:01.728Z,4.22
2018-04-12T16:12:06.117Z,8.93
2018-04-12T16:17:09.030Z,6.00
2018-04-12T16:22:12.003Z,5.87
2018-04-12T16:27:15.966Z,5.53
2018-04-12T16:32:18.926Z,5.20
2018-04-12T16:37:22.637Z,5.35
2018-04-12T16:42:25.957Z,5.60
2018-04-12T16:47:29.037Z,16.07
2018-04-12T16:52:31.937Z,6.27
2018-04-12T16:57:34.858Z,5.15
2018-04-12T17:02:37.767Z,5.20
2018-04-12T17:07:40.554Z,5.45
2018-04-12T17:12:43.878Z,7.73
2018-04-12T17:17:48.153Z,6.65
2018-04-12T17:22:53.356Z,5.65
2018-04-12T17:27:57.813Z,5.25
2018-04-12T17:33:01.117Z,5.23
2018-04-12T17:38:04.195Z,9.68
2018-04-12T17:43:07.093Z,4.55
2018-04-12T17:48:09.969Z,4.70
2018-04-12T17:53:12.963Z,4.33
2018-04-12T17:58:15.977Z,4.47
2018-04-12T18:03:18.822Z,13.33
2018-04-12T18:08:21.649Z,11.10
2018-04-12T18:13:24.444Z,10.25
2018-04-12T18:18:27.310Z,17.52
2018-04-12T18:23:30.396Z,9.50
2018-04-12T18:28:33.335Z,5.20
2018-04-12T18:33:37.713Z,5.13
2018-04-12T18:38:40.775Z,5.00
2018-04-12T18:43:45.156Z,5.45
2018-04-12T18:48:49.829Z,5.70
2018-04-12T18:53:55.485Z,6.20
2018-04-12T18:59:08.892Z,11.63
2018-04-12T19:04:11.830Z,11.10
2018-04-12T19:09:14.904Z,11.17
2018-04-12T19:14:18.078Z,8.95
2018-04-12T19:19:21.194Z,10.00
2018-04-12T19:24:24.189Z,8.67
2018-04-12T19:29:33.308Z,8.75
2018-04-12T19:34:40.944Z,8.23
2018-04-12T19:39:49.076Z,9.25
2018-04-12T19:45:00.169Z,10.17
2018-04-12T19:50:03.500Z,7.62
2018-04-12T19:55:08.919Z,10.90
2018-04-12T20:00:13.779Z,11.00
2018-04-12T20:05:18.421Z,11.00
2018-04-12T20:10:21.313Z,13.23
2018-04-12T20:15:24.795Z,12.70
2018-04-12T20:20:31.343Z,12.10
2018-04-12T20:25:40.664Z,12.67
2018-04-12T20:30:43.906Z,11.88
2018-04-12T20:41:03.961Z,10.55
2018-04-12T20:46:06.936Z,10.07
2018-04-12T20:51:10.958Z,8.80
2018-04-12T20:56:14.048Z,9.48
2018-04-12T21:01:18.644Z,8.77
2018-04-12T21:06:24.491Z,10.77
2018-04-12T21:11:30.212Z,9.13
2018-04-12T21:16:33.360Z,9.80
2018-04-12T21:21:36.288Z,10.00
2018-04-12T21:26:39.883Z,10.55
2018-04-12T21:31:42.737Z,11.20
2018-04-12T21:36:45.940Z,10.30
2018-04-12T21:41:48.974Z,10.10
2018-04-12T21:46:51.821Z,12.53
2018-04-12T21:51:54.804Z,11.48
2018-04-12T21:56:58.853Z,10.50
2018-04-12T22:02:04.708Z,12.30
2018-04-12T22:07:07.602Z,14.85
2018-04-12T22:12:10.416Z,15.48
2018-04-12T22:17:13.323Z,15.00
2018-04-12T22:22:16.358Z,16.00
2018-04-12T22:27:19.357Z,15.80
2018-04-12T22:32:22.319Z,15.90
2018-04-12T22:37:26.114Z,15.50
2018-04-12T22:42:29.383Z,13.30
2018-04-12T22:47:32.266Z,15.20
2018-04-12T22:52:36.163Z,13.03
2018-04-12T22:57:39.290Z,12.07
2018-04-12T23:02:42.157Z,11.55
2018-04-12T23:07:45.143Z,11.93
2018-04-12T23:12:47.971Z,11.48
2018-04-12T23:17:51.675Z,10.30
2018-04-12T23:22:56.112Z,11.40
2018-04-12T23:27:59.501Z,14.10
2018-04-12T23:33:03.089Z,13.32
2018-04-12T23:38:07.171Z,12.10
2018-04-12T23:43:10.052Z,12.00
2018-04-12T23:48:12.989Z,11.70
2018-04-12T23:53:16.988Z,11.00
2018-04-12T23:58:21.792Z,10.23
